sensor_id;sensor_type;location;lat;lon;timestamp;pressure;altitude;pressure_sealevel;temperature;humidity
46211;BME280;52144;48.040;-1.594;2023-01-08T00:01:04;99933.72;;;10.73;100.00
46211;BME280;52144;48.040;-1.594;2023-01-08T00:03:32;99935.72;;;10.83;100.00
46211;BME280;52144;48.040;-1.594;2023-01-08T00:06:01;99926.63;;;10.41;100.00
46211;BME280;52144;48.040;-1.594;2023-01-08T00:08:29;99910.91;;;10.83;100.00
46211;BME280;52144;48.040;-1.594;2023-01-08T00:10:57;99910.25;;;10.94;100.00
46211;BME280;52144;48.040;-1.594;2023-01-08T00:13:25;99900.25;;;10.83;99.75
46211;BME280;52144;48.040;-1.594;2023-01-08T00:15:54;99910.56;;;10.73;98.95
46211;BME280;52144;48.040;-1.594;2023-01-08T00:18:23;99904.88;;;10.79;100.00
46211;BME280;52144;48.040;-1.594;2023-01-08T00:20:52;99904.16;;;10.92;100.00
46211;BME280;52144;48.040;-1.594;2023-01-08T00:23:20;99890.59;;;10.80;100.00
46211;BME280;52144;48.040;-1.594;2023-01-08T00:25:48;99880.59;;;10.70;100.00
46211;BME280;52144;48.040;-1.594;2023-01-08T00:28:16;99877.66;;;10.89;100.00
46211;BME280;52144;48.040;-1.594;2023-01-08T00:30:46;99876.66;;;10.91;99.16
46211;BME280;52144;48.040;-1.594;2023-01-08T00:33:14;99875.75;;;10.91;99.39
46211;BME280;52144;48.040;-1.594;2023-01-08T00:35:44;99877.84;;;10.71;98.63
46211;BME280;52144;48.040;-1.594;2023-01-08T00:38:12;99867.63;;;10.63;97.91
46211;BME280;52144;48.040;-1.594;2023-01-08T00:40:39;99863.03;;;10.51;98.77
46211;BME280;52144;48.040;-1.594;2023-01-08T00:43:07;99861.59;;;10.46;99.75
46211;BME280;52144;48.040;-1.594;2023-01-08T00:45:35;99857.16;;;10.60;100.00
46211;BME280;52144;48.040;-1.594;2023-01-08T00:48:03;99855.69;;;10.71;100.00
46211;BME280;52144;48.040;-1.594;2023-01-08T00:50:31;99858.63;;;10.80;100.00
46211;BME280;52144;48.040;-1.594;2023-01-08T00:53:01;99876.72;;;10.90;100.00
46211;BME280;52144;48.040;-1.594;2023-01-08T00:55:28;99888.31;;;10.89;100.00
46211;BME280;52144;48.040;-1.594;2023-01-08T00:57:56;99908.84;;;10.42;100.00
46211;BME280;52144;48.040;-1.594;2023-01-08T01:00:24;99917.16;;;10.52;100.00
46211;BME280;52144;48.040;-1.594;2023-01-08T01:02:52;99914.94;;;10.28;100.00
46211;BME280;52144;48.040;-1.594;2023-01-08T01:05:19;99901.38;;;10.49;100.00
46211;BME280;52144;48.040;-1.594;2023-01-08T01:07:47;99910.91;;;10.21;100.00
46211;BME280;52144;48.040;-1.594;2023-01-08T01:10:17;99902.91;;;10.21;100.00
46211;BME280;52144;48.040;-1.594;2023-01-08T01:12:45;99907.25;;;10.08;100.00
46211;BME280;52144;48.040;-1.594;2023-01-08T01:15:14;99898.63;;;10.18;100.00
46211;BME280;52144;48.040;-1.594;2023-01-08T01:17:43;99902.25;;;9.86;100.00
46211;BME280;52144;48.040;-1.594;2023-01-08T01:20:14;99892.56;;;9.84;100.00
46211;BME280;52144;48.040;-1.594;2023-01-08T01:22:42;99874.31;;;10.40;100.00
46211;BME280;52144;48.040;-1.594;2023-01-08T01:25:10;99875.03;;;9.96;100.00
46211;BME280;52144;48.040;-1.594;2023-01-08T01:27:40;99869.06;;;10.23;100.00
46211;BME280;52144;48.040;-1.594;2023-01-08T01:30:08;99867.19;;;10.25;100.00
46211;BME280;52144;48.040;-1.594;2023-01-08T01:32:36;99870.50;;;10.30;100.00
46211;BME280;52144;48.040;-1.594;2023-01-08T01:35:05;99871.47;;;10.43;100.00
46211;BME280;52144;48.040;-1.594;2023-01-08T01:37:33;99866.16;;;10.43;100.00
46211;BME280;52144;48.040;-1.594;2023-01-08T01:40:01;99869.78;;;10.42;100.00
46211;BME280;52144;48.040;-1.594;2023-01-08T01:42:28;99868.59;;;10.32;100.00
46211;BME280;52144;48.040;-1.594;2023-01-08T01:45:17;99858.50;;;10.37;100.00
46211;BME280;52144;48.040;-1.594;2023-01-08T01:47:48;99852.63;;;10.32;100.00
46211;BME280;52144;48.040;-1.594;2023-01-08T01:50:20;99848.06;;;10.34;100.00
46211;BME280;52144;48.040;-1.594;2023-01-08T01:52:53;99844.19;;;10.24;100.00
46211;BME280;52144;48.040;-1.594;2023-01-08T01:55:24;99846.09;;;10.22;100.00
46211;BME280;52144;48.040;-1.594;2023-01-08T01:58:00;99840.41;;;10.28;100.00
46211;BME280;52144;48.040;-1.594;2023-01-08T02:00:32;99840.56;;;10.25;100.00
46211;BME280;52144;48.040;-1.594;2023-01-08T02:03:00;99840.34;;;10.14;100.00
46211;BME280;52144;48.040;-1.594;2023-01-08T02:05:33;99840.09;;;10.02;100.00
46211;BME280;52144;48.040;-1.594;2023-01-08T02:08:08;99838.91;;;9.92;100.00
46211;BME280;52144;48.040;-1.594;2023-01-08T02:10:42;99848.00;;;9.88;100.00
46211;BME280;52144;48.040;-1.594;2023-01-08T02:13:13;99838.84;;;9.78;100.00
46211;BME280;52144;48.040;-1.594;2023-01-08T02:15:49;99843.38;;;9.76;100.00
46211;BME280;52144;48.040;-1.594;2023-01-08T02:18:19;99850.94;;;9.99;100.00
46211;BME280;52144;48.040;-1.594;2023-01-08T02:20:54;99849.34;;;10.11;100.00
46211;BME280;52144;48.040;-1.594;2023-01-08T02:23:27;99848.50;;;10.11;100.00
46211;BME280;52144;48.040;-1.594;2023-01-08T02:26:06;99851.00;;;10.14;100.00
46211;BME280;52144;48.040;-1.594;2023-01-08T02:28:40;99858.97;;;10.14;100.00
46211;BME280;52144;48.040;-1.594;2023-01-08T02:31:09;99859.13;;;10.11;100.00
46211;BME280;52144;48.040;-1.594;2023-01-08T02:33:39;99857.94;;;10.16;100.00
46211;BME280;52144;48.040;-1.594;2023-01-08T02:36:20;99846.66;;;10.27;100.00
46211;BME280;52144;48.040;-1.594;2023-01-08T02:39:01;99854.50;;;10.30;100.00
46211;BME280;52144;48.040;-1.594;2023-01-08T02:41:37;99861.00;;;10.24;100.00
46211;BME280;52144;48.040;-1.594;2023-01-08T02:44:11;99855.75;;;10.23;100.00
46211;BME280;52144;48.040;-1.594;2023-01-08T02:46:43;99859.50;;;10.04;100.00
46211;BME280;52144;48.040;-1.594;2023-01-08T02:49:12;99851.09;;;9.96;100.00
46211;BME280;52144;48.040;-1.594;2023-01-08T02:51:44;99840.81;;;9.74;100.00
46211;BME280;52144;48.040;-1.594;2023-01-08T02:54:17;99852.28;;;9.75;100.00
46211;BME280;52144;48.040;-1.594;2023-01-08T02:56:50;99850.25;;;9.80;100.00
46211;BME280;52144;48.040;-1.594;2023-01-08T02:59:19;99840.03;;;9.40;100.00
46211;BME280;52144;48.040;-1.594;2023-01-08T03:01:49;99854.09;;;9.58;100.00
46211;BME280;52144;48.040;-1.594;2023-01-08T03:04:19;99848.00;;;9.88;100.00
46211;BME280;52144;48.040;-1.594;2023-01-08T03:06:48;99833.84;;;9.88;100.00
46211;BME280;52144;48.040;-1.594;2023-01-08T03:09:17;99840.44;;;9.96;100.00
46211;BME280;52144;48.040;-1.594;2023-01-08T03:11:52;99836.16;;;9.94;100.00
46211;BME280;52144;48.040;-1.594;2023-01-08T03:14:24;99832.88;;;10.04;100.00
46211;BME280;52144;48.040;-1.594;2023-01-08T03:16:56;99832.53;;;10.11;100.00
46211;BME280;52144;48.040;-1.594;2023-01-08T03:19:30;99835.19;;;10.11;100.00
46211;BME280;52144;48.040;-1.594;2023-01-08T03:21:59;99829.34;;;10.20;100.00
46211;BME280;52144;48.040;-1.594;2023-01-08T03:24:32;99826.69;;;10.20;100.00
46211;BME280;52144;48.040;-1.594;2023-01-08T03:27:04;99821.94;;;10.09;100.00
46211;BME280;52144;48.040;-1.594;2023-01-08T03:29:35;99820.59;;;10.18;100.00
46211;BME280;52144;48.040;-1.594;2023-01-08T03:32:08;99821.47;;;9.71;100.00
46211;BME280;52144;48.040;-1.594;2023-01-08T03:34:39;99825.88;;;9.88;100.00
46211;BME280;52144;48.040;-1.594;2023-01-08T03:37:09;99824.75;;;9.76;100.00
46211;BME280;52144;48.040;-1.594;2023-01-08T03:39:42;99829.88;;;9.79;100.00
46211;BME280;52144;48.040;-1.594;2023-01-08T03:42:14;99820.13;;;9.63;100.00
46211;BME280;52144;48.040;-1.594;2023-01-08T03:44:43;99827.41;;;9.44;100.00
46211;BME280;52144;48.040;-1.594;2023-01-08T03:47:12;99825.44;;;9.95;100.00
46211;BME280;52144;48.040;-1.594;2023-01-08T03:49:42;99828.25;;;9.92;100.00
46211;BME280;52144;48.040;-1.594;2023-01-08T03:52:20;99829.63;;;9.99;100.00
46211;BME280;52144;48.040;-1.594;2023-01-08T03:54:48;99824.13;;;10.02;100.00
46211;BME280;52144;48.040;-1.594;2023-01-08T03:57:18;99833.34;;;9.65;100.00
46211;BME280;52144;48.040;-1.594;2023-01-08T03:59:46;99821.59;;;9.85;100.00
46211;BME280;52144;48.040;-1.594;2023-01-08T04:02:14;99825.09;;;9.70;100.00
46211;BME280;52144;48.040;-1.594;2023-01-08T04:04:42;99829.09;;;10.09;100.00
46211;BME280;52144;48.040;-1.594;2023-01-08T04:07:11;99819.50;;;9.90;100.00
46211;BME280;52144;48.040;-1.594;2023-01-08T04:09:38;99826.16;;;10.13;100.00
46211;BME280;52144;48.040;-1.594;2023-01-08T04:12:06;99830.22;;;10.04;100.00
46211;BME280;52144;48.040;-1.594;2023-01-08T04:14:35;99826.69;;;10.20;100.00
46211;BME280;52144;48.040;-1.594;2023-01-08T04:17:03;99815.00;;;10.07;100.00
46211;BME280;52144;48.040;-1.594;2023-01-08T04:19:31;99818.75;;;9.88;100.00
46211;BME280;52144;48.040;-1.594;2023-01-08T04:21:59;99817.13;;;9.86;100.00
46211;BME280;52144;48.040;-1.594;2023-01-08T04:24:26;99826.38;;;9.94;100.00
46211;BME280;52144;48.040;-1.594;2023-01-08T04:26:54;99820.00;;;9.97;100.00
46211;BME280;52144;48.040;-1.594;2023-01-08T04:29:22;99815.38;;;10.00;100.00
46211;BME280;52144;48.040;-1.594;2023-01-08T04:31:51;99817.59;;;10.08;100.00
46211;BME280;52144;48.040;-1.594;2023-01-08T04:34:19;99820.63;;;9.86;100.00
46211;BME280;52144;48.040;-1.594;2023-01-08T04:36:46;99823.28;;;10.02;100.00
46211;BME280;52144;48.040;-1.594;2023-01-08T04:39:14;99815.38;;;10.00;100.00
46211;BME280;52144;48.040;-1.594;2023-01-08T04:41:42;99817.03;;;9.87;100.00
46211;BME280;52144;48.040;-1.594;2023-01-08T04:44:10;99817.34;;;9.81;100.00
46211;BME280;52144;48.040;-1.594;2023-01-08T04:46:37;99821.72;;;9.98;100.00
46211;BME280;52144;48.040;-1.594;2023-01-08T04:49:07;99808.50;;;9.96;100.00
46211;BME280;52144;48.040;-1.594;2023-01-08T04:51:35;99805.63;;;9.85;100.00
46211;BME280;52144;48.040;-1.594;2023-01-08T04:54:02;99806.63;;;9.98;100.00
46211;BME280;52144;48.040;-1.594;2023-01-08T04:56:31;99806.75;;;10.11;100.00
46211;BME280;52144;48.040;-1.594;2023-01-08T04:58:58;99798.69;;;10.13;100.00
46211;BME280;52144;48.040;-1.594;2023-01-08T05:01:27;99796.69;;;9.70;100.00
46211;BME280;52144;48.040;-1.594;2023-01-08T05:03:57;99792.22;;;9.87;100.00
46211;BME280;52144;48.040;-1.594;2023-01-08T05:06:27;99799.44;;;9.69;100.00
46211;BME280;52144;48.040;-1.594;2023-01-08T05:08:55;99789.13;;;9.78;100.00
46211;BME280;52144;48.040;-1.594;2023-01-08T05:11:23;99790.25;;;9.74;100.00
46211;BME280;52144;48.040;-1.594;2023-01-08T05:13:52;99782.00;;;9.79;100.00
46211;BME280;52144;48.040;-1.594;2023-01-08T05:16:20;99780.03;;;9.67;100.00
46211;BME280;52144;48.040;-1.594;2023-01-08T05:18:48;99780.94;;;9.51;100.00
46211;BME280;52144;48.040;-1.594;2023-01-08T05:21:16;99784.00;;;9.75;100.00
46211;BME280;52144;48.040;-1.594;2023-01-08T05:23:46;99777.63;;;9.78;100.00
46211;BME280;52144;48.040;-1.594;2023-01-08T05:26:15;99767.50;;;9.84;100.00
46211;BME280;52144;48.040;-1.594;2023-01-08T05:28:43;99765.78;;;9.83;100.00
46211;BME280;52144;48.040;-1.594;2023-01-08T05:31:11;99763.25;;;9.96;100.00
46211;BME280;52144;48.040;-1.594;2023-01-08T05:33:39;99763.34;;;9.95;100.00
46211;BME280;52144;48.040;-1.594;2023-01-08T05:36:08;99764.03;;;9.98;100.00
46211;BME280;52144;48.040;-1.594;2023-01-08T05:38:37;99760.03;;;9.91;100.00
46211;BME280;52144;48.040;-1.594;2023-01-08T05:41:07;99765.84;;;9.98;100.00
46211;BME280;52144;48.040;-1.594;2023-01-08T05:43:35;99760.81;;;9.93;100.00
46211;BME280;52144;48.040;-1.594;2023-01-08T05:46:04;99757.13;;;9.80;100.00
46211;BME280;52144;48.040;-1.594;2023-01-08T05:48:33;99760.38;;;9.85;100.00
46211;BME280;52144;48.040;-1.594;2023-01-08T05:51:03;99756.00;;;9.84;100.00
46211;BME280;52144;48.040;-1.594;2023-01-08T05:53:31;99752.06;;;9.75;100.00
46211;BME280;52144;48.040;-1.594;2023-01-08T05:56:00;99742.69;;;9.84;100.00
46211;BME280;52144;48.040;-1.594;2023-01-08T05:58:29;99752.50;;;9.83;100.00
46211;BME280;52144;48.040;-1.594;2023-01-08T06:01:00;99743.47;;;9.86;100.00
46211;BME280;52144;48.040;-1.594;2023-01-08T06:03:29;99747.66;;;9.90;100.00
46211;BME280;52144;48.040;-1.594;2023-01-08T06:05:58;99739.88;;;9.87;100.00
46211;BME280;52144;48.040;-1.594;2023-01-08T06:08:27;99745.88;;;9.75;100.00
46211;BME280;52144;48.040;-1.594;2023-01-08T06:10:58;99751.38;;;9.72;100.00
46211;BME280;52144;48.040;-1.594;2023-01-08T06:13:26;99747.09;;;9.85;100.00
46211;BME280;52144;48.040;-1.594;2023-01-08T06:15:56;99735.25;;;10.05;100.00
46211;BME280;52144;48.040;-1.594;2023-01-08T06:18:24;99743.72;;;9.97;100.00
46211;BME280;52144;48.040;-1.594;2023-01-08T06:20:52;99730.81;;;10.06;100.00
46211;BME280;52144;48.040;-1.594;2023-01-08T06:23:20;99730.97;;;10.02;100.00
46211;BME280;52144;48.040;-1.594;2023-01-08T06:25:50;99732.47;;;9.92;100.00
46211;BME280;52144;48.040;-1.594;2023-01-08T06:28:18;99727.91;;;9.94;100.00
46211;BME280;52144;48.040;-1.594;2023-01-08T06:30:46;99722.41;;;9.97;100.00
46211;BME280;52144;48.040;-1.594;2023-01-08T06:33:16;99721.28;;;10.01;100.00
46211;BME280;52144;48.040;-1.594;2023-01-08T06:35:46;99718.31;;;9.92;100.00
46211;BME280;52144;48.040;-1.594;2023-01-08T06:38:14;99724.88;;;10.00;100.00
46211;BME280;52144;48.040;-1.594;2023-01-08T06:40:44;99719.28;;;10.05;100.00
46211;BME280;52144;48.040;-1.594;2023-01-08T06:43:12;99721.28;;;10.01;100.00
46211;BME280;52144;48.040;-1.594;2023-01-08T06:45:40;99711.09;;;9.94;100.00
46211;BME280;52144;48.040;-1.594;2023-01-08T06:48:08;99702.53;;;10.03;100.00
46211;BME280;52144;48.040;-1.594;2023-01-08T06:50:37;99701.63;;;10.18;100.00
46211;BME280;52144;48.040;-1.594;2023-01-08T06:53:05;99702.19;;;10.23;100.00
46211;BME280;52144;48.040;-1.594;2023-01-08T06:55:33;99693.97;;;10.28;100.00
46211;BME280;52144;48.040;-1.594;2023-01-08T06:58:01;99691.00;;;10.18;100.00
46211;BME280;52144;48.040;-1.594;2023-01-08T07:00:28;99692.78;;;10.03;100.00
46211;BME280;52144;48.040;-1.594;2023-01-08T07:02:56;99686.50;;;10.04;100.00
46211;BME280;52144;48.040;-1.594;2023-01-08T07:05:24;99678.69;;;10.01;100.00
46211;BME280;52144;48.040;-1.594;2023-01-08T07:07:53;99676.22;;;9.98;100.00
46211;BME280;52144;48.040;-1.594;2023-01-08T07:10:21;99673.75;;;9.95;100.00
46211;BME280;52144;48.040;-1.594;2023-01-08T07:12:49;99682.50;;;9.97;100.00
46211;BME280;52144;48.040;-1.594;2023-01-08T07:15:17;99677.19;;;9.97;100.00
46211;BME280;52144;48.040;-1.594;2023-01-08T07:17:44;99679.56;;;10.02;100.00
46211;BME280;52144;48.040;-1.594;2023-01-08T07:20:12;99674.38;;;9.84;100.00
46211;BME280;52144;48.040;-1.594;2023-01-08T07:22:40;99677.97;;;10.14;100.00
46211;BME280;52144;48.040;-1.594;2023-01-08T07:25:09;99687.72;;;10.13;100.00
46211;BME280;52144;48.040;-1.594;2023-01-08T07:27:37;99688.03;;;10.23;100.00
46211;BME280;52144;48.040;-1.594;2023-01-08T07:30:06;99682.91;;;10.20;100.00
46211;BME280;52144;48.040;-1.594;2023-01-08T07:32:57;99680.22;;;10.06;100.00
46211;BME280;52144;48.040;-1.594;2023-01-08T07:35:25;99685.91;;;9.85;100.00
46211;BME280;52144;48.040;-1.594;2023-01-08T07:37:52;99686.69;;;10.01;100.00
46211;BME280;52144;48.040;-1.594;2023-01-08T07:40:22;99669.22;;;10.26;100.00
46211;BME280;52144;48.040;-1.594;2023-01-08T07:42:56;99661.63;;;10.20;100.00
46211;BME280;52144;48.040;-1.594;2023-01-08T07:45:25;99655.72;;;10.29;100.00
46211;BME280;52144;48.040;-1.594;2023-01-08T07:47:52;99648.59;;;10.30;100.00
46211;BME280;52144;48.040;-1.594;2023-01-08T07:50:20;99639.81;;;10.13;100.00
46211;BME280;52144;48.040;-1.594;2023-01-08T07:52:48;99633.94;;;10.22;100.00
46211;BME280;52144;48.040;-1.594;2023-01-08T07:55:16;99637.53;;;10.21;100.00
46211;BME280;52144;48.040;-1.594;2023-01-08T07:57:45;99636.91;;;10.18;100.00
46211;BME280;52144;48.040;-1.594;2023-01-08T08:00:13;99630.44;;;10.22;100.00
46211;BME280;52144;48.040;-1.594;2023-01-08T08:02:41;99636.41;;;10.11;100.00
46211;BME280;52144;48.040;-1.594;2023-01-08T08:05:09;99623.66;;;10.16;100.00
46211;BME280;52144;48.040;-1.594;2023-01-08T08:07:37;99626.25;;;10.18;100.00
46211;BME280;52144;48.040;-1.594;2023-01-08T08:10:05;99620.41;;;10.11;100.00
46211;BME280;52144;48.040;-1.594;2023-01-08T08:12:33;99616.53;;;10.17;100.00
46211;BME280;52144;48.040;-1.594;2023-01-08T08:15:03;99618.63;;;9.97;100.00
46211;BME280;52144;48.040;-1.594;2023-01-08T08:17:31;99612.81;;;9.91;100.00
46211;BME280;52144;48.040;-1.594;2023-01-08T08:19:58;99600.16;;;9.94;100.00
46211;BME280;52144;48.040;-1.594;2023-01-08T08:22:26;99604.44;;;9.82;100.00
46211;BME280;52144;48.040;-1.594;2023-01-08T08:24:54;99601.03;;;9.95;100.00
46211;BME280;52144;48.040;-1.594;2023-01-08T08:27:22;99602.66;;;9.97;100.00
46211;BME280;52144;48.040;-1.594;2023-01-08T08:29:50;99600.38;;;10.06;100.00
46211;BME280;52144;48.040;-1.594;2023-01-08T08:32:19;99596.38;;;9.98;100.00
46211;BME280;52144;48.040;-1.594;2023-01-08T08:34:47;99595.63;;;9.96;100.00
46211;BME280;52144;48.040;-1.594;2023-01-08T08:37:16;99592.41;;;10.06;100.00
46211;BME280;52144;48.040;-1.594;2023-01-08T08:39:44;99602.75;;;10.10;100.00
46211;BME280;52144;48.040;-1.594;2023-01-08T08:42:11;99591.50;;;9.91;100.00
46211;BME280;52144;48.040;-1.594;2023-01-08T08:44:39;99598.09;;;10.14;100.00
46211;BME280;52144;48.040;-1.594;2023-01-08T08:47:08;99596.47;;;10.25;100.00
46211;BME280;52144;48.040;-1.594;2023-01-08T08:49:38;99592.09;;;10.24;100.00
46211;BME280;52144;48.040;-1.594;2023-01-08T08:52:06;99593.19;;;10.36;100.00
46211;BME280;52144;48.040;-1.594;2023-01-08T08:54:34;99593.72;;;10.27;100.00
46211;BME280;52144;48.040;-1.594;2023-01-08T08:57:04;99598.28;;;10.25;100.00
46211;BME280;52144;48.040;-1.594;2023-01-08T08:59:31;99595.44;;;10.28;100.00
46211;BME280;52144;48.040;-1.594;2023-01-08T09:01:59;99583.44;;;10.21;100.00
46211;BME280;52144;48.040;-1.594;2023-01-08T09:04:29;99586.78;;;10.10;100.00
46211;BME280;52144;48.040;-1.594;2023-01-08T09:06:58;99590.91;;;10.30;100.00
46211;BME280;52144;48.040;-1.594;2023-01-08T09:09:26;99587.28;;;10.31;100.00
46211;BME280;52144;48.040;-1.594;2023-01-08T09:11:55;99594.00;;;10.51;100.00
46211;BME280;52144;48.040;-1.594;2023-01-08T09:14:23;99592.19;;;10.52;100.00
46211;BME280;52144;48.040;-1.594;2023-01-08T09:16:50;99589.91;;;10.60;100.00
46211;BME280;52144;48.040;-1.594;2023-01-08T09:19:18;99586.78;;;10.53;100.00
46211;BME280;52144;48.040;-1.594;2023-01-08T09:21:46;99589.69;;;10.77;100.00
46211;BME280;52144;48.040;-1.594;2023-01-08T09:24:15;99582.75;;;10.75;100.00
46211;BME280;52144;48.040;-1.594;2023-01-08T09:26:43;99579.22;;;10.74;100.00
46211;BME280;52144;48.040;-1.594;2023-01-08T09:29:11;99586.81;;;10.80;100.00
46211;BME280;52144;48.040;-1.594;2023-01-08T09:31:39;99583.50;;;10.77;100.00
46211;BME280;52144;48.040;-1.594;2023-01-08T09:34:07;99579.22;;;10.74;100.00
46211;BME280;52144;48.040;-1.594;2023-01-08T09:36:34;99583.28;;;10.80;100.00
46211;BME280;52144;48.040;-1.594;2023-01-08T09:39:02;99585.03;;;11.08;100.00
46211;BME280;52144;48.040;-1.594;2023-01-08T09:41:33;99576.44;;;11.17;100.00
46211;BME280;52144;48.040;-1.594;2023-01-08T09:44:03;99574.13;;;11.11;100.00
46211;BME280;52144;48.040;-1.594;2023-01-08T09:46:33;99570.56;;;11.25;100.00
46211;BME280;52144;48.040;-1.594;2023-01-08T09:49:04;99578.63;;;11.38;100.00
46211;BME280;52144;48.040;-1.594;2023-01-08T09:51:34;99578.53;;;11.52;100.00
46211;BME280;52144;48.040;-1.594;2023-01-08T09:54:03;99581.63;;;11.72;100.00
46211;BME280;52144;48.040;-1.594;2023-01-08T09:56:34;99582.16;;;11.64;100.00
46211;BME280;52144;48.040;-1.594;2023-01-08T09:59:04;99584.31;;;11.72;100.00
46211;BME280;52144;48.040;-1.594;2023-01-08T10:01:34;99577.41;;;12.08;100.00
46211;BME280;52144;48.040;-1.594;2023-01-08T10:04:05;99575.56;;;12.21;100.00
46211;BME280;52144;48.040;-1.594;2023-01-08T10:06:33;99564.06;;;12.08;100.00
46211;BME280;52144;48.040;-1.594;2023-01-08T10:09:01;99569.44;;;11.95;100.00
46211;BME280;52144;48.040;-1.594;2023-01-08T10:11:38;99563.53;;;11.90;100.00
46211;BME280;52144;48.040;-1.594;2023-01-08T10:14:19;99570.00;;;11.85;99.73
46211;BME280;52144;48.040;-1.594;2023-01-08T10:16:51;99557.44;;;11.75;100.00
46211;BME280;52144;48.040;-1.594;2023-01-08T10:19:21;99574.06;;;11.78;99.98
46211;BME280;52144;48.040;-1.594;2023-01-08T10:21:49;99556.56;;;11.87;100.00
46211;BME280;52144;48.040;-1.594;2023-01-08T10:24:16;99548.91;;;11.82;99.27
46211;BME280;52144;48.040;-1.594;2023-01-08T10:27:05;99545.81;;;12.01;100.00
46211;BME280;52144;48.040;-1.594;2023-01-08T10:29:33;99547.19;;;12.07;97.65
46211;BME280;52144;48.040;-1.594;2023-01-08T10:32:07;99546.31;;;12.07;98.90
46211;BME280;52144;48.040;-1.594;2023-01-08T10:34:43;99541.59;;;12.36;97.60
46211;BME280;52144;48.040;-1.594;2023-01-08T10:37:21;99535.22;;;12.13;97.40
46211;BME280;52144;48.040;-1.594;2023-01-08T10:39:50;99536.69;;;12.30;97.34
46211;BME280;52144;48.040;-1.594;2023-01-08T10:42:21;99535.16;;;12.38;95.80
46211;BME280;52144;48.040;-1.594;2023-01-08T10:44:54;99523.75;;;12.36;96.86
46211;BME280;52144;48.040;-1.594;2023-01-08T10:47:24;99516.22;;;12.54;95.05
46211;BME280;52144;48.040;-1.594;2023-01-08T10:49:54;99520.47;;;12.57;94.74
46211;BME280;52144;48.040;-1.594;2023-01-08T10:52:25;99517.44;;;12.74;94.24
46211;BME280;52144;48.040;-1.594;2023-01-08T10:54:54;99502.47;;;12.48;94.39
46211;BME280;52144;48.040;-1.594;2023-01-08T10:57:26;99495.59;;;12.19;95.30
46211;BME280;52144;48.040;-1.594;2023-01-08T10:59:54;99497.03;;;12.36;95.25
46211;BME280;52144;48.040;-1.594;2023-01-08T11:02:33;99489.41;;;12.43;95.07
46211;BME280;52144;48.040;-1.594;2023-01-08T11:05:06;99483.88;;;12.33;95.06
46211;BME280;52144;48.040;-1.594;2023-01-08T11:07:36;99474.06;;;12.34;96.49
46211;BME280;52144;48.040;-1.594;2023-01-08T11:10:15;99467.66;;;12.36;97.42
46211;BME280;52144;48.040;-1.594;2023-01-08T11:12:53;99458.38;;;12.29;96.78
46211;BME280;52144;48.040;-1.594;2023-01-08T11:15:29;99452.84;;;12.56;96.32
46211;BME280;52144;48.040;-1.594;2023-01-08T11:18:19;99447.22;;;12.35;96.24
46211;BME280;52144;48.040;-1.594;2023-01-08T11:20:49;99444.97;;;12.18;95.52
46211;BME280;52144;48.040;-1.594;2023-01-08T11:23:20;99434.31;;;12.29;97.88
46211;BME280;52144;48.040;-1.594;2023-01-08T11:25:53;99426.16;;;12.43;96.60
46211;BME280;52144;48.040;-1.594;2023-01-08T11:28:29;99422.97;;;12.38;96.71
46211;BME280;52144;48.040;-1.594;2023-01-08T11:31:10;99421.31;;;12.49;95.71
46211;BME280;52144;48.040;-1.594;2023-01-08T11:33:41;99403.53;;;12.60;95.30
46211;BME280;52144;48.040;-1.594;2023-01-08T11:36:18;99398.66;;;12.90;94.07
46211;BME280;52144;48.040;-1.594;2023-01-08T11:38:48;99393.25;;;13.14;92.85
46211;BME280;52144;48.040;-1.594;2023-01-08T11:41:36;99386.22;;;12.77;94.27
46211;BME280;52144;48.040;-1.594;2023-01-08T11:44:18;99382.09;;;12.49;95.98
46211;BME280;52144;48.040;-1.594;2023-01-08T11:46:56;99370.59;;;12.95;93.75
46211;BME280;52144;48.040;-1.594;2023-01-08T11:49:45;99381.78;;;13.00;93.25
46211;BME280;52144;48.040;-1.594;2023-01-08T11:52:27;99375.06;;;12.83;93.59
46211;BME280;52144;48.040;-1.594;2023-01-08T11:55:13;99385.81;;;13.06;94.95
46211;BME280;52144;48.040;-1.594;2023-01-08T11:58:00;99373.41;;;13.16;93.44
46211;BME280;52144;48.040;-1.594;2023-01-08T12:00:58;99362.00;;;13.25;94.26
46211;BME280;52144;48.040;-1.594;2023-01-08T12:03:33;99362.03;;;13.37;92.60
46211;BME280;52144;48.040;-1.594;2023-01-08T12:06:13;99364.38;;;13.41;91.60
46211;BME280;52144;48.040;-1.594;2023-01-08T12:08:54;99352.06;;;13.73;91.87
46211;BME280;52144;48.040;-1.594;2023-01-08T12:11:25;99342.53;;;13.01;92.51
46211;BME280;52144;48.040;-1.594;2023-01-08T12:14:09;99345.38;;;13.67;91.98
46211;BME280;52144;48.040;-1.594;2023-01-08T12:17:04;99331.28;;;13.54;92.44
46211;BME280;52144;48.040;-1.594;2023-01-08T12:19:47;99321.16;;;13.80;91.14
46211;BME280;52144;48.040;-1.594;2023-01-08T12:22:25;99326.50;;;13.57;94.15
46211;BME280;52144;48.040;-1.594;2023-01-08T12:27:58;99308.00;;;13.20;93.55
46211;BME280;52144;48.040;-1.594;2023-01-08T12:30:39;99301.97;;;13.30;94.21
46211;BME280;52144;48.040;-1.594;2023-01-08T12:33:27;99299.28;;;13.41;94.25
46211;BME280;52144;48.040;-1.594;2023-01-08T12:36:02;99285.59;;;13.78;93.43
46211;BME280;52144;48.040;-1.594;2023-01-08T12:38:34;99290.47;;;13.84;92.10
46211;BME280;52144;48.040;-1.594;2023-01-08T12:41:05;99276.13;;;13.74;92.80
46211;BME280;52144;48.040;-1.594;2023-01-08T12:43:42;99275.53;;;13.59;94.83
46211;BME280;52144;48.040;-1.594;2023-01-08T12:46:13;99271.56;;;13.31;97.01
46211;BME280;52144;48.040;-1.594;2023-01-08T12:48:45;99270.84;;;13.17;98.00
46211;BME280;52144;48.040;-1.594;2023-01-08T12:51:25;99262.06;;;13.27;99.20
46211;BME280;52144;48.040;-1.594;2023-01-08T12:53:57;99250.41;;;13.39;100.00
46211;BME280;52144;48.040;-1.594;2023-01-08T12:56:36;99248.44;;;13.18;100.00
46211;BME280;52144;48.040;-1.594;2023-01-08T12:59:17;99240.53;;;12.94;100.00
46211;BME280;52144;48.040;-1.594;2023-01-08T13:01:51;99226.34;;;12.82;100.00
46211;BME280;52144;48.040;-1.594;2023-01-08T13:04:23;99233.72;;;12.56;100.00
46211;BME280;52144;48.040;-1.594;2023-01-08T13:06:57;99237.09;;;12.36;100.00